Time,TemperatureF,DewpointF,PressureIn,WindDirection,WindDirectionDegrees,WindSpeedMPH,WindSpeedGustMPH,Humidity,HourlyPrecipIn,Conditions,Clouds,dailyrainin,SoftwareType,DateUTC
2013-04-16 00:05:00,64.1,61.1,30.12,SSE,168,0.0,0.0,90,0.00,,,0.01,Wunderground v.1.15,2013-04-16 04:05:00,
2013-04-16 00:10:00,63.7,60.1,30.13,SSE,168,0.0,0.0,88,0.00,,,0.00,Wunderground v.1.15,2013-04-16 04:10:00,
2013-04-16 00:15:00,63.3,60.0,30.13,SSE,168,0.0,0.0,89,0.00,,,0.00,Wunderground v.1.15,2013-04-16 04:15:00,
2013-04-16 00:21:00,63.1,60.4,30.13,SSE,168,0.0,0.0,91,0.00,,,0.00,Wunderground v.1.15,2013-04-16 04:21:00,
2013-04-16 00:26:00,62.9,59.9,30.13,SSE,168,0.0,0.0,90,0.00,,,0.00,Wunderground v.1.15,2013-04-16 04:26:00,
2013-04-16 00:31:00,62.6,59.6,30.13,SSE,168,0.0,0.0,90,0.00,,,0.00,Wunderground v.1.15,2013-04-16 04:31:00,
2013-04-16 00:36:00,62.3,59.6,30.13,SSE,168,0.0,0.0,91,0.00,,,0.00,Wunderground v.1.15,2013-04-16 04:36:00,
2013-04-16 00:42:00,62.0,59.0,30.13,SSE,168,0.0,0.0,90,0.00,,,0.00,Wunderground v.1.15,2013-04-16 04:42:00,
2013-04-16 00:47:00,61.5,58.5,30.14,SSE,168,0.0,0.0,90,0.00,,,0.00,Wunderground v.1.15,2013-04-16 04:47:00,
2013-04-16 00:52:00,61.2,58.6,30.13,SSE,168,0.0,0.0,91,0.00,,,0.00,Wunderground v.1.15,2013-04-16 04:52:00,
2013-04-16 00:57:00,61.0,58.4,30.14,SSE,168,0.0,0.0,91,0.00,,,0.00,Wunderground v.1.15,2013-04-16 04:57:00,
2013-04-16 01:02:00,60.8,58.2,30.14,SSE,168,0.0,0.0,91,0.00,,,0.00,Wunderground v.1.15,2013-04-16 05:02:00,
2013-04-16 01:08:00,60.6,58.0,30.14,SSE,168,0.0,0.0,91,0.00,,,0.00,Wunderground v.1.15,2013-04-16 05:08:00,
2013-04-16 01:13:00,60.5,58.2,30.14,SSE,168,0.0,0.0,92,0.00,,,0.00,Wunderground v.1.15,2013-04-16 05:13:00,
2013-04-16 01:19:00,60.5,58.5,30.14,SSE,168,0.0,0.0,93,0.00,,,0.00,Wunderground v.1.15,2013-04-16 05:19:00,
2013-04-16 01:24:00,60.4,58.4,30.14,SSE,168,0.0,0.0,93,0.00,,,0.00,Wunderground v.1.15,2013-04-16 05:24:00,
2013-04-16 01:29:00,60.2,57.9,30.14,SSE,168,0.0,0.0,92,0.00,,,0.00,Wunderground v.1.15,2013-04-16 05:29:00,
2013-04-16 01:34:00,60.1,57.8,30.14,SSE,168,0.0,0.0,92,0.00,,,0.00,Wunderground v.1.15,2013-04-16 05:34:00,
2013-04-16 01:39:00,59.9,57.6,30.14,SSE,168,0.0,0.0,92,0.00,,,0.00,Wunderground v.1.15,2013-04-16 05:39:00,
2013-04-16 01:44:00,59.9,57.9,30.14,SSE,168,0.0,0.0,93,0.00,,,0.00,Wunderground v.1.15,2013-04-16 05:44:00,
2013-04-16 01:49:00,59.9,57.9,30.14,SSE,168,0.0,0.0,93,0.00,,,0.00,Wunderground v.1.15,2013-04-16 05:49:00,
2013-04-16 01:54:00,59.7,57.4,30.14,SSE,168,0.0,0.0,92,0.00,,,0.00,Wunderground v.1.15,2013-04-16 05:54:00,
2013-04-16 02:00:00,59.7,57.7,30.14,SSE,168,0.0,0.0,93,0.00,,,0.00,Wunderground v.1.15,2013-04-16 06:00:00,
2013-04-16 02:05:00,59.6,57.6,30.14,SSE,168,0.0,0.0,93,0.00,,,0.00,Wunderground v.1.15,2013-04-16 06:05:00,
2013-04-16 02:10:00,59.5,57.2,30.14,SSE,168,0.0,0.0,92,0.00,,,0.00,Wunderground v.1.15,2013-04-16 06:10:00,
2013-04-16 02:15:00,59.3,57.3,30.13,SSE,168,0.0,0.0,93,0.00,,,0.00,Wunderground v.1.15,2013-04-16 06:15:00,
2013-04-16 02:20:00,59.2,57.2,30.14,SSE,168,0.0,0.0,93,0.00,,,0.00,Wunderground v.1.15,2013-04-16 06:20:00,
2013-04-16 02:25:00,59.2,57.2,30.14,SSE,168,0.0,0.0,93,0.00,,,0.00,Wunderground v.1.15,2013-04-16 06:25:00,
2013-04-16 02:30:00,59.0,57.0,30.14,SSE,168,0.0,0.0,93,0.00,,,0.00,Wunderground v.1.15,2013-04-16 06:30:00,
2013-04-16 02:35:00,59.0,57.0,30.14,SSE,168,0.0,0.0,93,0.00,,,0.00,Wunderground v.1.15,2013-04-16 06:35:00,
2013-04-16 02:40:00,59.0,57.3,30.14,SSE,168,0.0,0.0,94,0.00,,,0.00,Wunderground v.1.15,2013-04-16 06:40:00,
2013-04-16 02:46:00,59.0,57.3,30.14,SSE,168,0.0,0.0,94,0.00,,,0.00,Wunderground v.1.15,2013-04-16 06:46:00,
2013-04-16 02:51:00,58.9,57.2,30.14,SSE,168,0.0,0.0,94,0.00,,,0.00,Wunderground v.1.15,2013-04-16 06:51:00,
2013-04-16 02:55:00,58.9,57.2,30.14,SSE,168,0.0,0.0,94,0.00,,,0.00,Wunderground v.1.15,2013-04-16 06:55:00,
2013-04-16 03:01:00,58.8,57.1,30.14,SSE,168,0.0,0.0,94,0.00,,,0.00,Wunderground v.1.15,2013-04-16 07:01:00,
2013-04-16 03:06:00,58.7,57.0,30.14,SSE,168,0.0,0.0,94,0.00,,,0.00,Wunderground v.1.15,2013-04-16 07:06:00,
2013-04-16 03:11:00,58.6,56.9,30.14,SSE,168,0.0,0.0,94,0.00,,,0.00,Wunderground v.1.15,2013-04-16 07:11:00,
2013-04-16 03:16:00,58.5,56.8,30.14,SSE,168,0.0,0.0,94,0.00,,,0.00,Wunderground v.1.15,2013-04-16 07:16:00,
2013-04-16 03:21:00,58.5,56.8,30.14,SSE,168,0.0,0.0,94,0.00,,,0.00,Wunderground v.1.15,2013-04-16 07:21:00,
2013-04-16 03:26:00,58.5,56.8,30.14,SSE,168,0.0,0.0,94,0.00,,,0.00,Wunderground v.1.15,2013-04-16 07:26:00,
2013-04-16 03:31:00,58.5,57.1,30.14,SSE,168,0.0,0.0,95,0.00,,,0.00,Wunderground v.1.15,2013-04-16 07:31:00,
2013-04-16 03:36:00,58.5,56.8,30.14,SSE,168,0.0,0.0,94,0.00,,,0.00,Wunderground v.1.15,2013-04-16 07:36:00,
2013-04-16 03:41:00,58.3,56.6,30.14,SSE,168,0.0,0.0,94,0.00,,,0.00,Wunderground v.1.15,2013-04-16 07:41:00,
2013-04-16 03:46:00,58.2,56.5,30.14,SSE,168,0.0,0.0,94,0.00,,,0.00,Wunderground v.1.15,2013-04-16 07:46:00,
2013-04-16 03:51:00,58.1,56.4,30.14,SSE,168,0.0,0.0,94,0.00,,,0.00,Wunderground v.1.15,2013-04-16 07:51:00,
2013-04-16 03:56:00,58.1,56.4,30.15,SSE,168,0.0,0.0,94,0.00,,,0.00,Wunderground v.1.15,2013-04-16 07:56:00,
2013-04-16 04:01:00,58.1,56.4,30.15,SSE,168,0.0,0.0,94,0.00,,,0.00,Wunderground v.1.15,2013-04-16 08:01:00,
2013-04-16 04:06:00,58.2,56.8,30.15,SSE,168,0.0,0.0,95,0.00,,,0.00,Wunderground v.1.15,2013-04-16 08:06:00,
2013-04-16 04:11:00,58.4,57.0,30.14,SSE,168,0.0,0.0,95,0.00,,,0.00,Wunderground v.1.15,2013-04-16 08:11:00,
2013-04-16 04:16:00,58.6,57.5,30.14,SSE,168,0.0,0.0,96,0.00,,,0.00,Wunderground v.1.15,2013-04-16 08:16:00,
2013-04-16 04:21:00,59.0,57.9,30.14,SSE,168,0.0,0.0,96,0.00,,,0.00,Wunderground v.1.15,2013-04-16 08:21:00,
2013-04-16 04:27:00,59.4,58.5,30.14,SSE,168,0.0,0.0,97,0.00,,,0.00,Wunderground v.1.15,2013-04-16 08:27:00,
2013-04-16 04:32:00,59.8,58.9,30.14,SSE,168,0.0,0.0,97,0.00,,,0.00,Wunderground v.1.15,2013-04-16 08:32:00,
2013-04-16 04:37:00,59.8,58.7,30.14,SSE,168,0.0,0.0,96,0.00,,,0.00,Wunderground v.1.15,2013-04-16 08:37:00,
2013-04-16 04:42:00,59.3,57.6,30.14,SSE,168,0.0,0.0,94,0.00,,,0.00,Wunderground v.1.15,2013-04-16 08:42:00,
2013-04-16 04:47:00,59.0,57.3,30.14,SSE,168,0.0,0.0,94,0.00,,,0.00,Wunderground v.1.15,2013-04-16 08:47:00,
2013-04-16 04:52:00,58.7,57.0,30.14,SSE,168,0.0,0.0,94,0.00,,,0.00,Wunderground v.1.15,2013-04-16 08:52:00,
2013-04-16 04:57:00,58.5,56.5,30.15,SSE,168,0.0,0.0,93,0.00,,,0.00,Wunderground v.1.15,2013-04-16 08:57:00,
2013-04-16 05:02:00,58.3,56.6,30.14,SSE,168,0.0,0.0,94,0.00,,,0.00,Wunderground v.1.15,2013-04-16 09:02:00,
2013-04-16 05:07:00,58.2,56.5,30.15,SSE,168,0.0,0.0,94,0.00,,,0.00,Wunderground v.1.15,2013-04-16 09:07:00,
2013-04-16 05:12:00,58.0,56.3,30.14,SSE,168,0.0,0.0,94,0.00,,,0.00,Wunderground v.1.15,2013-04-16 09:12:00,
2013-04-16 05:17:00,57.8,56.1,30.14,SSE,168,0.0,0.0,94,0.00,,,0.00,Wunderground v.1.15,2013-04-16 09:17:00,
2013-04-16 05:22:00,57.7,56.0,30.14,SSE,168,0.0,0.0,94,0.00,,,0.00,Wunderground v.1.15,2013-04-16 09:22:00,
2013-04-16 05:27:00,57.7,56.0,30.14,SSE,168,0.0,0.0,94,0.00,,,0.00,Wunderground v.1.15,2013-04-16 09:27:00,
2013-04-16 05:32:00,57.8,56.4,30.14,SSE,168,0.0,0.0,95,0.00,,,0.00,Wunderground v.1.15,2013-04-16 09:32:00,
2013-04-16 05:37:00,58.0,56.9,30.14,SSE,168,0.0,0.0,96,0.00,,,0.00,Wunderground v.1.15,2013-04-16 09:37:00,
2013-04-16 05:42:00,58.2,57.1,30.14,SSE,168,0.0,0.0,96,0.00,,,0.00,Wunderground v.1.15,2013-04-16 09:42:00,
2013-04-16 05:47:00,58.4,57.3,30.14,SSE,168,0.0,0.0,96,0.00,,,0.00,Wunderground v.1.15,2013-04-16 09:47:00,
2013-04-16 05:52:00,57.9,56.2,30.14,SSE,168,0.0,0.0,94,0.00,,,0.00,Wunderground v.1.15,2013-04-16 09:52:00,
2013-04-16 05:57:00,57.6,55.9,30.14,SSE,168,0.0,0.0,94,0.00,,,0.00,Wunderground v.1.15,2013-04-16 09:57:00,
2013-04-16 06:02:00,57.3,55.6,30.14,SSE,168,0.0,0.0,94,0.00,,,0.00,Wunderground v.1.15,2013-04-16 10:02:00,
2013-04-16 06:07:00,57.2,55.8,30.14,SSE,168,0.0,0.0,95,0.00,,,0.00,Wunderground v.1.15,2013-04-16 10:07:00,
2013-04-16 06:12:00,57.1,55.7,30.14,SSE,168,0.0,0.0,95,0.00,,,0.00,Wunderground v.1.15,2013-04-16 10:12:00,
2013-04-16 06:17:00,57.1,56.0,30.14,SSE,168,0.0,0.0,96,0.00,,,0.00,Wunderground v.1.15,2013-04-16 10:17:00,
2013-04-16 06:22:00,57.2,56.1,30.14,SSE,168,0.0,0.0,96,0.00,,,0.00,Wunderground v.1.15,2013-04-16 10:22:00,
2013-04-16 06:27:00,57.2,56.1,30.15,SSE,168,0.0,0.0,96,0.00,,,0.00,Wunderground v.1.15,2013-04-16 10:27:00,
2013-04-16 06:32:00,57.2,56.1,30.15,SSE,168,0.0,0.0,96,0.00,,,0.00,Wunderground v.1.15,2013-04-16 10:32:00,
2013-04-16 06:37:00,56.9,55.5,30.15,SSE,168,0.0,0.0,95,0.00,,,0.00,Wunderground v.1.15,2013-04-16 10:37:00,
2013-04-16 06:42:00,56.7,55.3,30.16,SSE,168,0.0,0.0,95,0.00,,,0.00,Wunderground v.1.15,2013-04-16 10:42:00,
2013-04-16 06:47:00,56.6,55.5,30.16,SSE,168,0.0,0.0,96,0.00,,,0.00,Wunderground v.1.15,2013-04-16 10:47:00,
2013-04-16 06:52:00,56.5,55.4,30.16,SSE,168,0.0,0.0,96,0.00,,,0.00,Wunderground v.1.15,2013-04-16 10:52:00,
2013-04-16 06:57:00,56.4,55.3,30.17,SSE,168,0.0,0.0,96,0.00,,,0.00,Wunderground v.1.15,2013-04-16 10:57:00,
2013-04-16 07:02:00,56.5,55.4,30.17,SSE,168,0.0,0.0,96,0.00,,,0.00,Wunderground v.1.15,2013-04-16 11:02:00,
2013-04-16 07:07:00,56.8,56.0,30.17,SSE,168,0.0,0.0,97,0.00,,,0.00,Wunderground v.1.15,2013-04-16 11:07:00,
2013-04-16 07:12:00,57.1,56.3,30.17,SSE,168,0.0,0.0,97,0.00,,,0.00,Wunderground v.1.15,2013-04-16 11:12:00,
2013-04-16 07:17:00,57.3,56.5,30.18,SSE,168,0.0,0.0,97,0.00,,,0.00,Wunderground v.1.15,2013-04-16 11:17:00,
2013-04-16 07:22:00,57.3,56.5,30.18,SSE,168,0.0,0.0,97,0.00,,,0.00,Wunderground v.1.15,2013-04-16 11:22:00,
2013-04-16 07:28:00,57.4,56.6,30.18,SSE,168,0.0,0.0,97,0.00,,,0.00,Wunderground v.1.15,2013-04-16 11:28:00,
2013-04-16 07:33:00,57.5,56.7,30.19,SSE,168,0.0,0.0,97,0.00,,,0.00,Wunderground v.1.15,2013-04-16 11:33:00,
2013-04-16 07:38:00,57.8,57.0,30.18,SSE,168,0.0,0.0,97,0.00,,,0.00,Wunderground v.1.15,2013-04-16 11:38:00,
2013-04-16 07:43:00,58.2,57.4,30.19,SSE,168,0.0,0.0,97,0.00,,,0.00,Wunderground v.1.15,2013-04-16 11:43:00,
2013-04-16 07:48:00,58.4,57.8,30.19,SSE,168,0.0,0.0,98,0.00,,,0.00,Wunderground v.1.15,2013-04-16 11:48:00,
2013-04-16 07:53:00,58.6,58.0,30.19,SSE,168,0.0,0.0,98,0.00,,,0.00,Wunderground v.1.15,2013-04-16 11:53:00,
2013-04-16 07:58:00,58.9,58.3,30.20,SSE,168,0.0,0.0,98,0.00,,,0.00,Wunderground v.1.15,2013-04-16 11:58:00,
2013-04-16 08:03:00,59.4,58.8,30.20,SSE,168,0.0,0.0,98,0.00,,,0.00,Wunderground v.1.15,2013-04-16 12:03:00,
2013-04-16 08:08:00,59.6,59.0,30.20,SSE,163,0.0,0.0,98,0.00,,,0.00,Wunderground v.1.15,2013-04-16 12:08:00,
2013-04-16 08:13:00,59.6,59.0,30.20,SSE,162,0.0,0.0,98,0.00,,,0.00,Wunderground v.1.15,2013-04-16 12:13:00,
2013-04-16 08:18:00,59.8,59.2,30.20,SSE,162,0.0,0.0,98,0.00,,,0.00,Wunderground v.1.15,2013-04-16 12:18:00,
2013-04-16 08:23:00,60.0,59.4,30.20,SSE,155,0.0,0.0,98,0.00,,,0.00,Wunderground v.1.15,2013-04-16 12:23:00,
2013-04-16 08:28:00,60.3,59.7,30.21,SSE,149,0.0,0.0,98,0.00,,,0.00,Wunderground v.1.15,2013-04-16 12:28:00,
2013-04-16 08:33:00,60.5,59.9,30.21,SSE,149,0.0,0.0,98,0.00,,,0.00,Wunderground v.1.15,2013-04-16 12:33:00,
2013-04-16 08:38:00,60.7,60.1,30.22,SE,139,0.0,0.0,98,0.00,,,0.00,Wunderground v.1.15,2013-04-16 12:38:00,
2013-04-16 08:43:00,60.9,60.3,30.22,SE,134,0.0,0.0,98,0.00,,,0.00,Wunderground v.1.15,2013-04-16 12:43:00,
2013-04-16 08:48:00,61.0,60.4,30.22,SE,128,0.0,0.0,98,0.00,,,0.00,Wunderground v.1.15,2013-04-16 12:48:00,
2013-04-16 08:53:00,61.3,60.7,30.22,ESE,102,0.0,1.0,98,0.00,,,0.00,Wunderground v.1.15,2013-04-16 12:53:00,
2013-04-16 08:58:00,61.5,60.9,30.22,East,85,0.0,4.0,98,0.00,,,0.00,Wunderground v.1.15,2013-04-16 12:58:00,
2013-04-16 09:03:00,61.7,61.1,30.22,East,83,0.0,0.0,98,0.00,,,0.00,Wunderground v.1.15,2013-04-16 13:03:00,
2013-04-16 09:08:00,61.8,61.2,30.22,East,83,0.0,0.0,98,0.00,,,0.00,Wunderground v.1.15,2013-04-16 13:08:00,
2013-04-16 09:13:00,62.0,61.4,30.22,SSE,155,0.0,0.0,98,0.00,,,0.00,Wunderground v.1.15,2013-04-16 13:13:00,
2013-04-16 09:18:00,62.1,61.5,30.22,NE,47,0.0,3.0,98,0.00,,,0.00,Wunderground v.1.15,2013-04-16 13:18:00,
2013-04-16 09:23:00,62.3,61.7,30.22,NE,47,0.0,0.0,98,0.00,,,0.00,Wunderground v.1.15,2013-04-16 13:23:00,
2013-04-16 09:28:00,62.5,61.9,30.22,NE,47,0.0,0.0,98,0.00,,,0.00,Wunderground v.1.15,2013-04-16 13:28:00,
2013-04-16 09:34:00,62.5,61.9,30.22,NE,47,0.0,0.0,98,0.00,,,0.00,Wunderground v.1.15,2013-04-16 13:34:00,
2013-04-16 09:39:00,62.5,61.6,30.22,NE,47,0.0,0.0,97,0.00,,,0.00,Wunderground v.1.15,2013-04-16 13:39:00,
2013-04-16 09:44:00,62.5,61.6,30.22,NE,47,0.0,0.0,97,0.00,,,0.00,Wunderground v.1.15,2013-04-16 13:44:00,
2013-04-16 09:49:00,62.7,61.8,30.22,NE,47,0.0,0.0,97,0.00,,,0.00,Wunderground v.1.15,2013-04-16 13:49:00,
2013-04-16 09:54:00,63.1,61.9,30.22,NE,47,0.0,0.0,96,0.00,,,0.00,Wunderground v.1.15,2013-04-16 13:54:00,
2013-04-16 09:59:00,63.6,62.4,30.22,SSE,153,4.0,5.0,96,0.00,,,0.00,Wunderground v.1.15,2013-04-16 13:59:00,
2013-04-16 10:04:00,64.3,61.9,30.22,South,173,0.0,4.0,92,0.00,,,0.00,Wunderground v.1.15,2013-04-16 14:04:00,
2013-04-16 10:09:00,64.9,62.5,30.22,South,173,0.0,5.0,92,0.00,,,0.00,Wunderground v.1.15,2013-04-16 14:09:00,
2013-04-16 10:14:00,65.6,62.6,30.22,South,173,2.0,2.0,90,0.00,,,0.00,Wunderground v.1.15,2013-04-16 14:14:00,
2013-04-16 10:19:00,66.2,62.9,30.22,South,173,0.0,2.0,89,0.00,,,0.00,Wunderground v.1.15,2013-04-16 14:19:00,
2013-04-16 10:24:00,66.7,62.0,30.22,South,175,0.0,6.0,85,0.00,,,0.00,Wunderground v.1.15,2013-04-16 14:24:00,
2013-04-16 10:29:00,67.2,62.9,30.22,South,175,2.0,6.0,86,0.00,,,0.00,Wunderground v.1.15,2013-04-16 14:29:00,
2013-04-16 10:34:00,67.9,63.2,30.22,South,175,0.0,1.0,85,0.00,,,0.00,Wunderground v.1.15,2013-04-16 14:34:00,
2013-04-16 10:39:00,68.5,62.8,30.22,South,175,0.0,1.0,82,0.00,,,0.00,Wunderground v.1.15,2013-04-16 14:39:00,
2013-04-16 10:44:00,68.9,63.5,30.22,South,186,2.0,4.0,83,0.00,,,0.00,Wunderground v.1.15,2013-04-16 14:44:00,
2013-04-16 10:49:00,69.3,63.2,30.23,SSW,194,0.0,7.0,81,0.00,,,0.00,Wunderground v.1.15,2013-04-16 14:49:00,
2013-04-16 10:54:00,69.7,62.9,30.23,SSW,212,2.0,5.0,79,0.00,,,0.00,Wunderground v.1.15,2013-04-16 14:54:00,
2013-04-16 10:59:00,70.0,62.8,30.23,SW,215,2.0,5.0,78,0.00,,,0.00,Wunderground v.1.15,2013-04-16 14:59:00,
2013-04-16 11:04:00,70.4,62.5,30.23,South,179,5.0,8.0,76,0.00,,,0.00,Wunderground v.1.15,2013-04-16 15:04:00,
2013-04-16 11:09:00,70.6,62.3,30.23,South,182,1.0,8.0,75,0.00,,,0.00,Wunderground v.1.15,2013-04-16 15:09:00,
2013-04-16 11:14:00,70.8,63.2,30.23,SSE,150,0.0,2.0,77,0.00,,,0.00,Wunderground v.1.15,2013-04-16 15:14:00,
2013-04-16 11:20:00,71.0,63.1,30.24,NE,46,0.0,3.0,76,0.00,,,0.00,Wunderground v.1.15,2013-04-16 15:20:00,
2013-04-16 11:25:00,70.9,63.7,30.23,NE,46,0.0,0.0,78,0.00,,,0.00,Wunderground v.1.15,2013-04-16 15:25:00,
2013-04-16 11:30:00,71.3,62.6,30.23,SW,226,0.0,4.0,74,0.00,,,0.00,Wunderground v.1.15,2013-04-16 15:30:00,
2013-04-16 11:35:00,72.0,62.9,30.23,SSE,153,4.0,7.0,73,0.00,,,0.00,Wunderground v.1.15,2013-04-16 15:35:00,
2013-04-16 11:40:00,72.3,63.2,30.23,South,180,0.0,7.0,73,0.00,,,0.00,Wunderground v.1.15,2013-04-16 15:40:00,
2013-04-16 11:45:00,72.3,62.8,30.23,South,180,0.0,2.0,72,0.00,,,0.00,Wunderground v.1.15,2013-04-16 15:45:00,
2013-04-16 11:50:00,72.2,62.7,30.23,South,180,0.0,2.0,72,0.00,,,0.00,Wunderground v.1.15,2013-04-16 15:50:00,
2013-04-16 11:55:00,72.4,64.0,30.23,South,180,0.0,0.0,75,0.00,,,0.00,Wunderground v.1.15,2013-04-16 15:55:00,
2013-04-16 12:00:00,73.0,63.4,30.23,South,180,0.0,0.0,72,0.00,,,0.00,Wunderground v.1.15,2013-04-16 16:00:00,
2013-04-16 12:05:00,73.2,62.8,30.23,South,180,0.0,3.0,70,0.00,,,0.00,Wunderground v.1.15,2013-04-16 16:05:00,
2013-04-16 12:10:00,73.1,62.7,30.22,South,180,0.0,3.0,70,0.00,,,0.00,Wunderground v.1.15,2013-04-16 16:10:00,
2013-04-16 12:15:00,73.1,62.7,30.23,South,182,0.0,1.0,70,0.00,,,0.00,Wunderground v.1.15,2013-04-16 16:15:00,
2013-04-16 12:20:00,73.3,62.9,30.23,South,182,3.0,4.0,70,0.00,,,0.00,Wunderground v.1.15,2013-04-16 16:20:00,
2013-04-16 12:25:00,73.6,62.8,30.23,South,190,4.0,4.0,69,0.00,,,0.00,Wunderground v.1.15,2013-04-16 16:25:00,
2013-04-16 12:30:00,73.8,62.6,30.22,SSW,192,0.0,4.0,68,0.00,,,0.00,Wunderground v.1.15,2013-04-16 16:30:00,
2013-04-16 12:35:00,74.0,62.8,30.22,SSW,192,0.0,1.0,68,0.00,,,0.00,Wunderground v.1.15,2013-04-16 16:35:00,
2013-04-16 12:40:00,74.2,62.5,30.22,WNW,303,2.0,4.0,67,0.00,,,0.00,Wunderground v.1.15,2013-04-16 16:40:00,
2013-04-16 12:45:00,74.7,63.4,30.22,NNW,346,0.0,2.0,68,0.00,,,0.00,Wunderground v.1.15,2013-04-16 16:45:00,
2013-04-16 12:50:00,75.3,62.7,30.22,SSW,205,9.0,9.0,65,0.00,,,0.00,Wunderground v.1.15,2013-04-16 16:50:00,
2013-04-16 12:55:00,75.9,62.8,30.21,SSW,198,0.0,4.0,64,0.00,,,0.00,Wunderground v.1.15,2013-04-16 16:55:00,
2013-04-16 13:00:00,76.9,64.2,30.21,SSW,193,0.0,4.0,65,0.00,,,0.00,Wunderground v.1.15,2013-04-16 17:00:00,
2013-04-16 13:05:00,77.6,64.5,30.21,ENE,78,0.0,3.0,64,0.00,,,0.00,Wunderground v.1.15,2013-04-16 17:05:00,
2013-04-16 13:10:00,78.0,63.9,30.21,ENE,71,0.0,6.0,62,0.00,,,0.00,Wunderground v.1.15,2013-04-16 17:10:00,
2013-04-16 13:15:00,77.7,63.2,30.21,ENE,68,2.0,3.0,61,0.00,,,0.00,Wunderground v.1.15,2013-04-16 17:15:00,
2013-04-16 13:20:00,77.1,62.6,30.21,East,83,1.0,3.0,61,0.00,,,0.00,Wunderground v.1.15,2013-04-16 17:20:00,
2013-04-16 13:25:00,77.0,63.0,30.20,ENE,75,0.0,3.0,62,0.00,,,0.00,Wunderground v.1.15,2013-04-16 17:25:00,
2013-04-16 13:30:00,77.2,62.7,30.20,South,173,0.0,4.0,61,0.00,,,0.00,Wunderground v.1.15,2013-04-16 17:30:00,
2013-04-16 13:35:00,77.8,63.7,30.20,South,172,5.0,6.0,62,0.00,,,0.00,Wunderground v.1.15,2013-04-16 17:35:00,
2013-04-16 13:40:00,78.5,63.9,30.20,East,94,0.0,6.0,61,0.00,,,0.00,Wunderground v.1.15,2013-04-16 17:40:00,
2013-04-16 13:45:00,79.0,63.4,30.19,SE,145,2.0,6.0,59,0.00,,,0.00,Wunderground v.1.15,2013-04-16 17:45:00,
2013-04-16 13:50:00,79.1,61.5,30.19,South,182,4.0,6.0,55,0.00,,,0.00,Wunderground v.1.15,2013-04-16 17:50:00,
2013-04-16 13:55:00,78.9,61.4,30.19,South,188,2.0,8.0,55,0.00,,,0.00,Wunderground v.1.15,2013-04-16 17:55:00,
2013-04-16 14:00:00,79.2,62.1,30.19,SSE,149,0.0,8.0,56,0.00,,,0.00,Wunderground v.1.15,2013-04-16 18:00:00,
2013-04-16 14:05:00,79.5,63.9,30.18,South,190,4.0,6.0,59,0.00,,,0.00,Wunderground v.1.15,2013-04-16 18:05:00,
2013-04-16 14:10:00,79.6,61.0,30.18,ESE,109,0.0,8.0,53,0.00,,,0.00,Wunderground v.1.15,2013-04-16 18:10:00,
2013-04-16 14:15:00,79.5,60.3,30.18,SE,142,0.0,3.0,52,0.00,,,0.00,Wunderground v.1.15,2013-04-16 18:15:00,
2013-04-16 14:20:00,79.3,61.2,30.18,SSW,194,8.0,11.0,54,0.00,,,0.00,Wunderground v.1.15,2013-04-16 18:20:00,
2013-04-16 14:25:00,79.3,60.1,30.18,SSW,207,4.0,7.0,52,0.00,,,0.00,Wunderground v.1.15,2013-04-16 18:25:00,
2013-04-16 14:30:00,79.4,60.2,30.17,ENE,76,0.0,8.0,52,0.00,,,0.00,Wunderground v.1.15,2013-04-16 18:30:00,
2013-04-16 14:35:00,79.9,59.6,30.17,SW,225,6.0,8.0,50,0.00,,,0.00,Wunderground v.1.15,2013-04-16 18:35:00,
2013-04-16 14:40:00,79.9,60.2,30.17,South,182,0.0,10.0,51,0.00,,,0.00,Wunderground v.1.15,2013-04-16 18:40:00,
2013-04-16 14:45:00,79.9,60.7,30.17,South,185,7.0,7.0,52,0.00,,,0.00,Wunderground v.1.15,2013-04-16 18:45:00,
2013-04-16 14:51:00,80.5,60.7,30.17,SSW,205,7.0,9.0,51,0.00,,,0.00,Wunderground v.1.15,2013-04-16 18:51:00,
2013-04-16 14:56:00,80.5,60.1,30.16,SSW,204,3.0,5.0,50,0.00,,,0.00,Wunderground v.1.15,2013-04-16 18:56:00,
2013-04-16 15:01:00,80.3,60.5,30.17,SSW,210,0.0,10.0,51,0.00,,,0.00,Wunderground v.1.15,2013-04-16 19:01:00,
2013-04-16 15:06:00,80.5,61.3,30.17,ESE,110,1.0,4.0,52,0.00,,,0.00,Wunderground v.1.15,2013-04-16 19:06:00,
2013-04-16 15:11:00,80.5,61.3,30.16,South,190,5.0,5.0,52,0.00,,,0.00,Wunderground v.1.15,2013-04-16 19:11:00,
2013-04-16 15:16:00,80.2,61.5,30.16,South,173,5.0,6.0,53,0.00,,,0.00,Wunderground v.1.15,2013-04-16 19:16:00,
2013-04-16 15:21:00,80.0,61.9,30.16,South,171,5.0,9.0,54,0.00,,,0.00,Wunderground v.1.15,2013-04-16 19:21:00,
2013-04-16 15:26:00,80.3,61.6,30.16,SSW,201,0.0,7.0,53,0.00,,,0.00,Wunderground v.1.15,2013-04-16 19:26:00,
2013-04-16 15:31:00,80.5,61.8,30.15,South,179,0.0,7.0,53,0.00,,,0.00,Wunderground v.1.15,2013-04-16 19:31:00,
2013-04-16 15:36:00,80.8,61.5,30.15,SSW,192,1.0,7.0,52,0.00,,,0.00,Wunderground v.1.15,2013-04-16 19:36:00,
2013-04-16 15:41:00,80.8,61.5,30.15,South,190,9.0,11.0,52,0.00,,,0.00,Wunderground v.1.15,2013-04-16 19:41:00,
2013-04-16 15:47:00,80.5,61.3,30.15,SW,236,4.0,12.0,52,0.00,,,0.00,Wunderground v.1.15,2013-04-16 19:47:00,
2013-04-16 15:52:00,80.8,61.5,30.15,SSW,206,4.0,12.0,52,0.00,,,0.00,Wunderground v.1.15,2013-04-16 19:52:00,
2013-04-16 15:57:00,80.8,61.0,30.15,SSW,194,1.0,7.0,51,0.00,,,0.00,Wunderground v.1.15,2013-04-16 19:57:00,
2013-04-16 16:02:00,81.1,60.1,30.15,SSW,205,5.0,10.0,49,0.00,,,0.00,Wunderground v.1.15,2013-04-16 20:02:00,
2013-04-16 16:07:00,81.1,60.1,30.15,South,190,2.0,8.0,49,0.00,,,0.00,Wunderground v.1.15,2013-04-16 20:07:00,
2013-04-16 16:12:00,81.1,60.1,30.15,SW,222,0.0,8.0,49,0.00,,,0.00,Wunderground v.1.15,2013-04-16 20:12:00,
2013-04-16 16:17:00,81.4,60.4,30.15,South,187,2.0,8.0,49,0.00,,,0.00,Wunderground v.1.15,2013-04-16 20:17:00,
2013-04-16 16:22:00,81.8,62.5,30.15,ENE,77,4.0,8.0,52,0.00,,,0.00,Wunderground v.1.15,2013-04-16 20:22:00,
2013-04-16 16:27:00,81.8,61.3,30.14,South,181,2.0,8.0,50,0.00,,,0.00,Wunderground v.1.15,2013-04-16 20:27:00,
2013-04-16 16:32:00,81.8,60.2,30.14,SW,218,0.0,8.0,48,0.00,,,0.00,Wunderground v.1.15,2013-04-16 20:32:00,
2013-04-16 16:37:00,81.8,60.2,30.14,SSW,196,4.0,9.0,48,0.00,,,0.00,Wunderground v.1.15,2013-04-16 20:37:00,
2013-04-16 16:42:00,82.0,61.5,30.14,South,178,1.0,9.0,50,0.00,,,0.00,Wunderground v.1.15,2013-04-16 20:42:00,
2013-04-16 16:47:00,81.7,60.1,30.14,South,186,6.0,9.0,48,0.00,,,0.00,Wunderground v.1.15,2013-04-16 20:47:00,
2013-04-16 16:52:00,80.9,59.9,30.14,SSW,207,0.0,10.0,49,0.00,,,0.00,Wunderground v.1.15,2013-04-16 20:52:00,
2013-04-16 16:57:00,81.2,61.4,30.14,South,182,0.0,5.0,51,0.00,,,0.00,Wunderground v.1.15,2013-04-16 20:57:00,
2013-04-16 17:02:00,81.8,60.8,30.14,South,172,1.0,7.0,49,0.00,,,0.00,Wunderground v.1.15,2013-04-16 21:02:00,
2013-04-16 17:07:00,82.1,61.0,30.14,SSW,196,5.0,5.0,49,0.00,,,0.00,Wunderground v.1.15,2013-04-16 21:07:00,
2013-04-16 17:12:00,82.0,60.4,30.13,SW,227,5.0,8.0,48,0.00,,,0.00,Wunderground v.1.15,2013-04-16 21:12:00,
2013-04-16 17:17:00,81.6,60.0,30.13,South,183,8.0,8.0,48,0.00,,,0.00,Wunderground v.1.15,2013-04-16 21:17:00,
2013-04-16 17:22:00,81.3,60.3,30.13,WSW,243,3.0,4.0,49,0.00,,,0.00,Wunderground v.1.15,2013-04-16 21:22:00,
2013-04-16 17:27:00,81.3,60.3,30.13,South,182,5.0,9.0,49,0.00,,,0.00,Wunderground v.1.15,2013-04-16 21:27:00,
2013-04-16 17:32:00,81.6,60.6,30.13,South,182,0.0,3.0,49,0.00,,,0.00,Wunderground v.1.15,2013-04-16 21:32:00,
2013-04-16 17:37:00,81.8,60.2,30.13,South,184,4.0,6.0,48,0.00,,,0.00,Wunderground v.1.15,2013-04-16 21:37:00,
2013-04-16 17:42:00,81.8,60.2,30.13,South,169,0.0,2.0,48,0.00,,,0.00,Wunderground v.1.15,2013-04-16 21:42:00,
2013-04-16 17:47:00,82.0,59.8,30.13,SSE,156,5.0,7.0,47,0.00,,,0.00,Wunderground v.1.15,2013-04-16 21:47:00,
2013-04-16 17:52:00,82.0,59.8,30.12,South,182,2.0,4.0,47,0.00,,,0.00,Wunderground v.1.15,2013-04-16 21:52:00,
2013-04-16 17:57:00,81.9,60.9,30.12,South,178,0.0,7.0,49,0.00,,,0.00,Wunderground v.1.15,2013-04-16 21:57:00,
2013-04-16 18:02:00,81.9,59.7,30.13,South,181,4.0,4.0,47,0.00,,,0.00,Wunderground v.1.15,2013-04-16 22:02:00,
2013-04-16 18:07:00,81.6,60.6,30.12,SSW,196,1.0,7.0,49,0.00,,,0.00,Wunderground v.1.15,2013-04-16 22:07:00,
2013-04-16 18:12:00,81.6,61.2,30.13,SSW,196,0.0,2.0,50,0.00,,,0.00,Wunderground v.1.15,2013-04-16 22:12:00,
2013-04-16 18:17:00,81.8,61.3,30.13,SSW,196,0.0,3.0,50,0.00,,,0.00,Wunderground v.1.15,2013-04-16 22:17:00,
2013-04-16 18:22:00,81.5,60.5,30.13,SSW,200,2.0,2.0,49,0.00,,,0.00,Wunderground v.1.15,2013-04-16 22:22:00,
2013-04-16 18:27:00,81.2,60.2,30.13,South,186,3.0,7.0,49,0.00,,,0.00,Wunderground v.1.15,2013-04-16 22:27:00,
2013-04-16 18:33:00,81.0,60.6,30.13,South,190,0.0,4.0,50,0.00,,,0.00,Wunderground v.1.15,2013-04-16 22:33:00,
2013-04-16 18:38:00,81.1,60.7,30.13,South,190,2.0,4.0,50,0.00,,,0.00,Wunderground v.1.15,2013-04-16 22:38:00,
2013-04-16 18:43:00,81.3,60.3,30.13,South,191,3.0,4.0,49,0.00,,,0.00,Wunderground v.1.15,2013-04-16 22:43:00,
2013-04-16 18:48:00,81.3,60.3,30.13,South,188,2.0,4.0,49,0.00,,,0.00,Wunderground v.1.15,2013-04-16 22:48:00,
2013-04-16 18:53:00,81.2,60.8,30.13,South,188,3.0,3.0,50,0.00,,,0.00,Wunderground v.1.15,2013-04-16 22:53:00,
2013-04-16 18:58:00,81.1,60.1,30.13,South,188,1.0,4.0,49,0.00,,,0.00,Wunderground v.1.15,2013-04-16 22:58:00,
2013-04-16 19:03:00,80.9,60.5,30.13,South,188,0.0,2.0,50,0.00,,,0.00,Wunderground v.1.15,2013-04-16 23:03:00,
2013-04-16 19:08:00,80.5,60.7,30.13,South,189,0.0,4.0,51,0.00,,,0.00,Wunderground v.1.15,2013-04-16 23:08:00,
2013-04-16 19:13:00,80.2,61.0,30.13,South,188,0.0,1.0,52,0.00,,,0.00,Wunderground v.1.15,2013-04-16 23:13:00,
2013-04-16 19:18:00,79.8,61.1,30.13,SW,231,0.0,1.0,53,0.00,,,0.00,Wunderground v.1.15,2013-04-16 23:18:00,
2013-04-16 19:23:00,79.5,61.4,30.13,SW,230,0.0,0.0,54,0.00,,,0.00,Wunderground v.1.15,2013-04-16 23:23:00,
2013-04-16 19:28:00,79.1,62.1,30.13,SW,230,0.0,0.0,56,0.00,,,0.00,Wunderground v.1.15,2013-04-16 23:28:00,
2013-04-16 19:33:00,78.7,62.2,30.13,SW,230,0.0,0.0,57,0.00,,,0.00,Wunderground v.1.15,2013-04-16 23:33:00,
2013-04-16 19:38:00,78.1,62.1,30.13,SW,230,0.0,0.0,58,0.00,,,0.00,Wunderground v.1.15,2013-04-16 23:38:00,
2013-04-16 19:43:00,77.5,62.0,30.13,SW,230,0.0,0.0,59,0.00,,,0.00,Wunderground v.1.15,2013-04-16 23:43:00,
2013-04-16 19:48:00,77.0,62.5,30.13,SW,230,0.0,0.0,61,0.00,,,0.00,Wunderground v.1.15,2013-04-16 23:48:00,
2013-04-16 19:53:00,76.5,62.5,30.13,SW,230,0.0,0.0,62,0.00,,,0.00,Wunderground v.1.15,2013-04-16 23:53:00,
2013-04-16 19:58:00,76.0,62.9,30.13,SW,230,0.0,0.0,64,0.00,,,0.00,Wunderground v.1.15,2013-04-16 23:58:00,
2013-04-16 20:03:00,75.7,63.1,30.14,SW,230,0.0,0.0,65,0.00,,,0.00,Wunderground v.1.15,2013-04-17 00:03:00,
2013-04-16 20:08:00,75.4,63.7,30.13,SW,230,0.0,0.0,67,0.00,,,0.00,Wunderground v.1.15,2013-04-17 00:08:00,
2013-04-16 20:13:00,74.8,63.9,30.14,SW,230,0.0,0.0,69,0.00,,,0.00,Wunderground v.1.15,2013-04-17 00:13:00,
2013-04-16 20:18:00,74.1,63.7,30.14,SW,230,0.0,0.0,70,0.00,,,0.00,Wunderground v.1.15,2013-04-17 00:18:00,
2013-04-16 20:23:00,73.6,63.6,30.13,SW,230,0.0,0.0,71,0.00,,,0.00,Wunderground v.1.15,2013-04-17 00:23:00,
2013-04-16 20:28:00,72.8,63.6,30.13,SW,230,0.0,0.0,73,0.00,,,0.00,Wunderground v.1.15,2013-04-17 00:28:00,
2013-04-16 20:33:00,72.1,63.4,30.14,SW,230,0.0,0.0,74,0.00,,,0.00,Wunderground v.1.15,2013-04-17 00:33:00,
2013-04-16 20:38:00,71.6,63.6,30.14,SW,230,0.0,0.0,76,0.00,,,0.00,Wunderground v.1.15,2013-04-17 00:38:00,
2013-04-16 20:43:00,71.3,63.3,30.14,SW,230,0.0,0.0,76,0.00,,,0.00,Wunderground v.1.15,2013-04-17 00:43:00,
2013-04-16 20:48:00,70.9,63.3,30.14,SW,230,0.0,0.0,77,0.00,,,0.00,Wunderground v.1.15,2013-04-17 00:48:00,
2013-04-16 20:53:00,70.6,63.0,30.14,SW,230,0.0,0.0,77,0.00,,,0.00,Wunderground v.1.15,2013-04-17 00:53:00,
2013-04-16 20:58:00,70.3,63.1,30.14,SW,230,0.0,0.0,78,0.00,,,0.00,Wunderground v.1.15,2013-04-17 00:58:00,
2013-04-16 21:03:00,69.8,62.6,30.14,SW,230,0.0,0.0,78,0.00,,,0.00,Wunderground v.1.15,2013-04-17 01:03:00,
2013-04-16 21:08:00,69.3,62.5,30.14,SW,230,0.0,0.0,79,0.00,,,0.00,Wunderground v.1.15,2013-04-17 01:08:00,
2013-04-16 21:13:00,69.0,62.6,30.15,SW,230,0.0,0.0,80,0.00,,,0.00,Wunderground v.1.15,2013-04-17 01:13:00,
2013-04-16 21:18:00,68.9,62.5,30.15,SW,230,0.0,0.0,80,0.00,,,0.00,Wunderground v.1.15,2013-04-17 01:18:00,
2013-04-16 21:23:00,68.6,62.5,30.15,SW,230,0.0,0.0,81,0.00,,,0.00,Wunderground v.1.15,2013-04-17 01:23:00,
2013-04-16 21:28:00,68.5,62.4,30.14,SW,230,0.0,0.0,81,0.00,,,0.00,Wunderground v.1.15,2013-04-17 01:28:00,
2013-04-16 21:33:00,68.4,62.3,30.15,SW,230,0.0,0.0,81,0.00,,,0.00,Wunderground v.1.15,2013-04-17 01:33:00,
2013-04-16 21:38:00,68.0,62.3,30.15,SW,230,0.0,0.0,82,0.00,,,0.00,Wunderground v.1.15,2013-04-17 01:38:00,
2013-04-16 21:43:00,67.7,62.3,30.15,SW,230,0.0,0.0,83,0.00,,,0.00,Wunderground v.1.15,2013-04-17 01:43:00,
2013-04-16 21:48:00,67.6,62.6,30.16,SW,230,0.0,0.0,84,0.00,,,0.00,Wunderground v.1.15,2013-04-17 01:48:00,
2013-04-16 21:53:00,67.4,62.4,30.15,SW,230,0.0,0.0,84,0.00,,,0.00,Wunderground v.1.15,2013-04-17 01:53:00,
2013-04-16 21:58:00,67.4,62.4,30.16,SW,230,0.0,0.0,84,0.00,,,0.00,Wunderground v.1.15,2013-04-17 01:58:00,
2013-04-16 22:03:00,67.3,62.3,30.16,SW,230,0.0,0.0,84,0.00,,,0.00,Wunderground v.1.15,2013-04-17 02:03:00,
2013-04-16 22:08:00,67.2,62.2,30.16,SW,230,0.0,0.0,84,0.00,,,0.00,Wunderground v.1.15,2013-04-17 02:08:00,
2013-04-16 22:13:00,67.2,62.2,30.16,SW,230,0.0,0.0,84,0.00,,,0.00,Wunderground v.1.15,2013-04-17 02:13:00,
2013-04-16 22:18:00,67.1,62.1,30.16,SW,230,0.0,0.0,84,0.00,,,0.00,Wunderground v.1.15,2013-04-17 02:18:00,
2013-04-16 22:23:00,67.0,62.0,30.16,SW,230,0.0,0.0,84,0.00,,,0.00,Wunderground v.1.15,2013-04-17 02:23:00,
2013-04-16 22:28:00,67.3,61.6,30.16,SW,230,0.0,0.0,82,0.00,,,0.00,Wunderground v.1.15,2013-04-17 02:28:00,
2013-04-16 22:33:00,67.7,62.0,30.17,SW,230,0.0,0.0,82,0.00,,,0.00,Wunderground v.1.15,2013-04-17 02:33:00,
2013-04-16 22:38:00,67.8,61.8,30.16,SW,230,0.0,0.0,81,0.00,,,0.00,Wunderground v.1.15,2013-04-17 02:38:00,
2013-04-16 22:44:00,67.9,61.9,30.16,SW,230,0.0,0.0,81,0.00,,,0.00,Wunderground v.1.15,2013-04-17 02:44:00,
2013-04-16 22:49:00,67.9,61.9,30.16,SW,230,0.0,0.0,81,0.00,,,0.00,Wunderground v.1.15,2013-04-17 02:49:00,
2013-04-16 22:54:00,67.6,61.9,30.16,SW,230,0.0,0.0,82,0.00,,,0.00,Wunderground v.1.15,2013-04-17 02:54:00,
2013-04-16 22:59:00,67.3,61.6,30.16,SW,230,0.0,0.0,82,0.00,,,0.00,Wunderground v.1.15,2013-04-17 02:59:00,
2013-04-16 23:04:00,67.2,61.5,30.16,SW,230,0.0,0.0,82,0.00,,,0.00,Wunderground v.1.15,2013-04-17 03:04:00,
2013-04-16 23:09:00,67.0,61.7,30.16,SW,230,0.0,0.0,83,0.00,,,0.00,Wunderground v.1.15,2013-04-17 03:09:00,
2013-04-16 23:14:00,66.8,61.5,30.16,SW,230,0.0,0.0,83,0.00,,,0.00,Wunderground v.1.15,2013-04-17 03:14:00,
2013-04-16 23:19:00,66.8,61.5,30.16,SW,230,0.0,0.0,83,0.00,,,0.00,Wunderground v.1.15,2013-04-17 03:19:00,
2013-04-16 23:24:00,67.1,61.4,30.16,SW,230,0.0,0.0,82,0.00,,,0.00,Wunderground v.1.15,2013-04-17 03:24:00,
2013-04-16 23:29:00,67.5,61.5,30.16,SW,230,0.0,0.0,81,0.00,,,0.00,Wunderground v.1.15,2013-04-17 03:29:00,
2013-04-16 23:34:00,67.7,61.3,30.16,SW,230,0.0,0.0,80,0.00,,,0.00,Wunderground v.1.15,2013-04-17 03:34:00,
2013-04-16 23:39:00,67.8,61.4,30.16,SW,230,0.0,0.0,80,0.00,,,0.00,Wunderground v.1.15,2013-04-17 03:39:00,
2013-04-16 23:44:00,67.6,61.6,30.16,SW,230,0.0,0.0,81,0.00,,,0.00,Wunderground v.1.15,2013-04-17 03:44:00,
2013-04-16 23:47:00,68.8,62.7,30.03,SSE,152,0.0,0.0,81,0.00,,,0.00,Wunderground v.1.15,2013-04-17 03:47:00,
2013-04-16 23:48:00,68.8,62.7,30.03,SSE,152,0.0,0.0,81,0.00,,,0.00,Wunderground v.1.15,2013-04-17 03:48:00,
2013-04-16 23:49:00,67.4,61.4,30.15,SW,230,0.0,0.0,81,0.00,,,0.00,Wunderground v.1.15,2013-04-17 03:49:00,
2013-04-16 23:50:00,68.7,62.6,30.03,SSE,152,0.0,0.0,81,0.00,,,0.00,Wunderground v.1.15,2013-04-17 03:50:00,
2013-04-16 23:51:00,68.7,62.6,30.03,SSE,152,0.0,0.0,81,0.00,,,0.00,Wunderground v.1.15,2013-04-17 03:51:00,
2013-04-16 23:52:00,68.7,62.6,30.03,SSE,152,0.0,0.0,81,0.00,,,0.00,Wunderground v.1.15,2013-04-17 03:52:00,
2013-04-16 23:53:00,68.6,62.5,30.03,SSE,152,0.0,0.0,81,0.00,,,0.00,Wunderground v.1.15,2013-04-17 03:53:00,
2013-04-16 23:54:00,67.6,61.2,30.15,SW,228,0.0,0.0,80,0.00,,,0.00,Wunderground v.1.15,2013-04-17 03:54:00,
2013-04-16 23:55:00,68.6,62.5,30.03,SSE,152,0.0,0.0,81,0.00,,,0.00,Wunderground v.1.15,2013-04-17 03:55:00,
2013-04-16 23:59:00,67.7,61.3,30.15,SW,227,0.0,0.0,80,0.00,,,0.00,Wunderground v.1.15,2013-04-17 03:59:00,